createdAt,value
2022-10-12T00:01:07.090Z,8.00
2022-10-12T00:03:36.089Z,8.20
2022-10-12T00:06:08.101Z,7.90
2022-10-12T00:08:38.337Z,8.23
2022-10-12T00:11:11.902Z,8.73
2022-10-12T00:13:39.996Z,8.37
2022-10-12T00:16:10.565Z,8.63
2022-10-12T00:18:39.296Z,8.13
2022-10-12T00:21:11.078Z,8.87
2022-10-12T00:23:40.500Z,8.13
2022-10-12T00:26:13.598Z,8.43
2022-10-12T00:28:42.022Z,8.63
2022-10-12T00:31:13.046Z,8.33
2022-10-12T00:33:41.528Z,7.77
2022-10-12T00:36:15.976Z,8.10
2022-10-12T00:38:44.445Z,8.70
2022-10-12T00:41:16.434Z,9.10
2022-10-12T00:43:45.819Z,8.33
2022-10-12T00:46:19.521Z,7.53
2022-10-12T00:48:53.944Z,7.63
2022-10-12T00:51:24.281Z,7.90
2022-10-12T00:53:59.170Z,6.63
2022-10-12T00:56:34.251Z,6.87
2022-10-12T00:59:07.917Z,6.77
2022-10-12T01:01:37.234Z,6.93
2022-10-12T01:04:07.331Z,6.53
2022-10-12T01:06:36.257Z,7.00
2022-10-12T01:09:05.395Z,6.60
2022-10-12T01:11:34.814Z,7.23
2022-10-12T01:18:30.376Z,8.07
2022-10-12T01:21:12.190Z,8.17
2022-10-12T01:24:44.783Z,6.70
2022-10-12T01:27:41.437Z,7.60
2022-10-12T01:30:21.863Z,8.47
2022-10-12T01:33:15.875Z,8.17
2022-10-12T01:35:54.923Z,8.33
2022-10-12T01:38:37.766Z,7.47
2022-10-12T01:41:14.145Z,7.23
2022-10-12T01:43:45.894Z,7.53
2022-10-12T01:46:47.730Z,7.27
2022-10-12T01:49:20.134Z,6.87
2022-10-12T01:52:22.240Z,6.30
2022-10-12T01:55:04.531Z,6.87
2022-10-12T01:57:46.108Z,6.87
2022-10-12T02:00:17.226Z,6.97
2022-10-12T02:03:00.173Z,7.43
2022-10-12T02:05:38.969Z,7.33
2022-10-12T02:08:18.932Z,7.30
2022-10-12T02:10:55.135Z,6.23
2022-10-12T02:13:26.243Z,6.63
2022-10-12T02:15:55.499Z,6.27
2022-10-12T02:18:26.192Z,6.73
2022-10-12T02:20:57.305Z,5.83
2022-10-12T02:23:26.080Z,6.47
2022-10-12T02:25:57.098Z,6.00
2022-10-12T02:28:29.855Z,6.43
2022-10-12T02:31:05.042Z,6.87
2022-10-12T02:33:42.770Z,6.77
2022-10-12T02:36:17.483Z,6.60
2022-10-12T02:38:54.321Z,6.57
2022-10-12T02:41:28.838Z,7.53
2022-10-12T02:44:01.563Z,7.53
2022-10-12T02:46:32.765Z,7.20
2022-10-12T02:49:05.430Z,7.70
2022-10-12T02:51:35.249Z,7.67
2022-10-12T02:54:04.407Z,7.90
2022-10-12T02:56:32.513Z,7.60
2022-10-12T02:59:00.680Z,7.63
2022-10-12T03:01:28.825Z,8.37
2022-10-12T03:03:56.995Z,8.37
2022-10-12T03:06:27.191Z,8.30
2022-10-12T03:08:57.125Z,7.33
2022-10-12T03:11:25.471Z,7.63
2022-10-12T03:13:53.713Z,6.67
2022-10-12T03:16:22.102Z,8.57
2022-10-12T03:18:50.323Z,8.73
2022-10-12T03:21:18.762Z,7.83
2022-10-12T03:23:48.218Z,8.30
2022-10-12T03:26:16.379Z,8.13
2022-10-12T03:28:44.464Z,8.80
2022-10-12T03:31:12.597Z,8.27
2022-10-12T03:33:40.697Z,8.53
2022-10-12T03:36:10.613Z,8.63
2022-10-12T03:38:38.681Z,8.37
2022-10-12T03:41:08.290Z,8.73
2022-10-12T03:43:36.698Z,10.67
2022-10-12T03:46:05.030Z,8.70
2022-10-12T03:48:33.196Z,8.67
2022-10-12T03:51:01.250Z,9.03
2022-10-12T03:53:29.574Z,8.63
2022-10-12T03:55:57.590Z,9.53
2022-10-12T03:58:27.087Z,9.60
2022-10-12T04:00:55.895Z,9.50
2022-10-12T04:03:23.936Z,10.17
2022-10-12T04:05:55.831Z,9.40
2022-10-12T04:08:24.466Z,10.70
2022-10-12T04:10:52.501Z,10.23
2022-10-12T04:13:21.276Z,9.77
2022-10-12T04:15:50.657Z,9.33
2022-10-12T04:18:18.754Z,9.67
2022-10-12T04:20:49.978Z,9.07
2022-10-12T04:23:18.129Z,9.63
2022-10-12T04:25:46.223Z,8.13
2022-10-12T04:28:14.295Z,8.57
2022-10-12T04:30:42.316Z,7.93
2022-10-12T04:33:11.990Z,8.13
2022-10-12T04:35:40.056Z,9.00
2022-10-12T04:38:08.067Z,7.80
2022-10-12T04:40:36.092Z,7.73
2022-10-12T04:43:04.196Z,7.40
2022-10-12T04:45:32.353Z,7.67
2022-10-12T04:48:00.374Z,7.77
2022-10-12T04:50:30.247Z,7.93
2022-10-12T04:52:58.646Z,8.80
2022-10-12T04:55:27.594Z,7.90
2022-10-12T04:57:55.698Z,8.53
2022-10-12T05:00:23.833Z,8.50
2022-10-12T05:02:51.878Z,9.63
2022-10-12T05:05:19.976Z,8.40
2022-10-12T05:07:49.527Z,8.57
2022-10-12T05:10:17.821Z,10.23
2022-10-12T05:12:45.879Z,9.00
2022-10-12T05:15:13.914Z,9.07
2022-10-12T05:17:41.990Z,9.03
2022-10-12T05:20:12.470Z,10.27
2022-10-12T05:22:40.591Z,9.87
2022-10-12T05:25:11.107Z,11.03
2022-10-12T05:27:39.544Z,9.60
2022-10-12T05:30:09.508Z,9.87
2022-10-12T05:32:37.870Z,10.67
2022-10-12T05:35:07.362Z,10.67
2022-10-12T05:37:35.906Z,10.70
2022-10-12T05:40:04.959Z,10.60
2022-10-12T05:42:35.881Z,9.80
2022-10-12T05:45:05.115Z,10.23
2022-10-12T05:47:33.290Z,10.83
2022-10-12T05:50:01.371Z,10.53
2022-10-12T05:52:29.427Z,11.30
2022-10-12T05:54:57.498Z,12.17
2022-10-12T05:57:25.656Z,10.90
2022-10-12T05:59:55.233Z,11.37
2022-10-12T06:02:23.298Z,11.03
2022-10-12T06:04:51.321Z,10.63
2022-10-12T06:07:19.338Z,11.40
2022-10-12T06:09:47.634Z,11.00
2022-10-12T06:12:16.270Z,10.97
2022-10-12T06:14:44.404Z,10.70
2022-10-12T06:17:13.800Z,11.37
2022-10-12T06:19:41.844Z,10.40
2022-10-12T06:22:09.907Z,10.50
2022-10-12T06:24:38.382Z,10.40
2022-10-12T06:27:06.430Z,10.60
2022-10-12T06:29:35.818Z,10.63
2022-10-12T06:32:03.856Z,10.53
2022-10-12T06:34:33.948Z,10.10
2022-10-12T06:37:02.359Z,10.43
2022-10-12T06:39:30.468Z,9.50
2022-10-12T06:41:59.035Z,9.20
2022-10-12T06:44:29.718Z,9.13
2022-10-12T06:46:57.865Z,8.80
2022-10-12T06:49:25.995Z,8.17
2022-10-12T06:51:55.338Z,9.37
2022-10-12T06:54:23.406Z,9.50
2022-10-12T06:56:54.318Z,9.90
2022-10-12T06:59:26.023Z,9.70
2022-10-12T07:01:55.399Z,11.07
2022-10-12T07:04:23.646Z,9.27
2022-10-12T07:06:51.659Z,9.53
2022-10-12T07:09:21.142Z,9.43
2022-10-12T07:11:49.258Z,9.10
2022-10-12T07:14:17.628Z,11.30
2022-10-12T07:16:45.682Z,10.33
2022-10-12T07:19:14.031Z,11.40
2022-10-12T07:21:42.173Z,10.30
2022-10-12T07:24:13.021Z,10.33
2022-10-12T07:26:42.377Z,11.23
2022-10-12T07:29:10.446Z,14.97
2022-10-12T07:31:38.902Z,14.17
2022-10-12T07:34:06.974Z,11.53
2022-10-12T07:36:57.624Z,12.73
2022-10-12T07:39:24.718Z,11.93
2022-10-12T07:41:55.140Z,12.03
2022-10-12T07:44:24.447Z,11.70
2022-10-12T07:46:53.580Z,12.67
2022-10-12T07:49:23.179Z,11.67
2022-10-12T07:51:51.211Z,11.73
2022-10-12T07:54:22.618Z,12.37
2022-10-12T07:56:55.024Z,11.00
2022-10-12T07:59:23.043Z,11.90
2022-10-12T08:01:51.248Z,11.67
2022-10-12T08:04:19.279Z,11.93
2022-10-12T08:06:47.306Z,10.80
2022-10-12T08:09:15.467Z,12.43
2022-10-12T08:11:43.622Z,13.07
2022-10-12T08:14:17.717Z,12.00
2022-10-12T08:16:46.704Z,11.77
2022-10-12T08:19:15.056Z,11.87
2022-10-12T08:21:43.419Z,12.77
2022-10-12T08:24:12.521Z,13.23
2022-10-12T08:26:40.697Z,13.00
2022-10-12T08:29:35.509Z,11.80
2022-10-12T08:32:03.607Z,10.93
2022-10-12T08:34:32.146Z,12.23
2022-10-12T08:37:00.417Z,11.47
2022-10-12T08:39:28.558Z,11.23
2022-10-12T08:42:12.243Z,10.77
2022-10-12T08:44:56.870Z,10.87
2022-10-12T08:47:38.696Z,10.63
2022-10-12T08:50:15.826Z,10.23
2022-10-12T08:52:54.728Z,10.37
2022-10-12T08:55:35.116Z,10.43
2022-10-12T08:58:04.165Z,10.37
2022-10-12T09:00:35.640Z,9.67
2022-10-12T09:03:15.656Z,10.03
2022-10-12T09:05:51.132Z,11.47
2022-10-12T09:08:35.285Z,10.67
2022-10-12T09:11:24.901Z,9.77
2022-10-12T09:14:01.957Z,9.17
2022-10-12T09:16:36.743Z,9.57
2022-10-12T09:19:13.931Z,9.50
2022-10-12T09:21:43.308Z,9.30
2022-10-12T09:24:18.070Z,9.07
2022-10-12T09:26:51.135Z,8.70
2022-10-12T09:29:26.988Z,8.80
2022-10-12T09:32:36.638Z,7.90
2022-10-12T09:35:08.020Z,7.77
2022-10-12T09:37:37.142Z,7.17
2022-10-12T09:40:06.977Z,7.43
2022-10-12T09:42:35.426Z,6.73
2022-10-12T09:45:15.692Z,7.00
2022-10-12T09:48:14.900Z,7.60
2022-10-12T09:50:48.874Z,6.97
2022-10-12T09:53:28.640Z,8.07
2022-10-12T09:56:04.899Z,7.70
2022-10-12T09:58:44.120Z,6.53
2022-10-12T10:01:21.537Z,6.70
2022-10-12T10:04:09.645Z,6.97
2022-10-12T10:06:38.835Z,6.37
2022-10-12T10:09:06.963Z,6.13
2022-10-12T10:11:35.531Z,5.70
2022-10-12T10:14:03.749Z,6.00
2022-10-12T10:16:32.319Z,5.97
2022-10-12T10:19:02.993Z,6.00
2022-10-12T10:21:34.865Z,6.73
2022-10-12T10:24:05.384Z,5.87
2022-10-12T10:26:54.620Z,6.20
2022-10-12T10:29:35.995Z,6.13
2022-10-12T10:32:24.377Z,6.70
2022-10-12T10:35:06.346Z,6.40
2022-10-12T10:37:34.786Z,6.20
2022-10-12T10:40:03.942Z,6.07
2022-10-12T10:42:34.688Z,6.20
2022-10-12T10:45:07.009Z,6.43
2022-10-12T10:47:43.626Z,6.13
2022-10-12T10:50:27.642Z,7.07
2022-10-12T10:52:58.553Z,6.43
2022-10-12T10:55:42.118Z,6.43
2022-10-12T10:58:25.550Z,6.27
2022-10-12T11:01:02.021Z,6.20
2022-10-12T11:03:38.491Z,7.10
2022-10-12T11:06:24.371Z,5.97
2022-10-12T11:09:03.761Z,6.40
2022-10-12T11:11:37.248Z,6.07
2022-10-12T11:14:15.478Z,5.57
2022-10-12T11:16:51.405Z,5.83
2022-10-12T11:19:31.259Z,6.43
2022-10-12T11:22:05.743Z,6.07
2022-10-12T11:24:41.734Z,6.67
2022-10-12T11:27:16.389Z,5.87
2022-10-12T11:29:44.538Z,5.60
2022-10-12T11:32:23.443Z,5.70
2022-10-12T11:34:57.061Z,7.00
2022-10-12T11:37:33.515Z,6.20
2022-10-12T11:40:03.777Z,6.13
2022-10-12T11:42:34.581Z,6.20
2022-10-12T11:45:14.810Z,5.83
2022-10-12T11:47:47.417Z,5.70
2022-10-12T11:50:29.618Z,6.60
2022-10-12T11:53:03.087Z,5.80
2022-10-12T11:55:44.931Z,6.60
2022-10-12T11:58:31.558Z,7.10
2022-10-12T12:01:29.434Z,7.50
2022-10-12T12:04:41.296Z,6.60
2022-10-12T12:07:44.774Z,5.97
2022-10-12T12:11:07.524Z,6.00
2022-10-12T12:13:35.589Z,6.37
2022-10-12T12:16:44.682Z,6.00
2022-10-12T12:19:40.513Z,6.77
2022-10-12T12:22:30.053Z,5.40
2022-10-12T12:25:14.981Z,6.63
2022-10-12T12:27:48.006Z,5.97
2022-10-12T12:30:40.679Z,6.00
2022-10-12T12:33:31.075Z,5.50
2022-10-12T12:36:01.536Z,6.43
2022-10-12T12:38:33.421Z,6.03
2022-10-12T12:41:08.928Z,5.20
2022-10-12T12:43:54.787Z,6.23
2022-10-12T12:46:25.470Z,6.23
2022-10-12T12:49:02.892Z,6.23
2022-10-12T12:51:41.757Z,5.73
2022-10-12T12:54:21.945Z,6.20
2022-10-12T12:57:34.898Z,5.80
2022-10-12T13:00:21.156Z,5.07
2022-10-12T13:03:26.346Z,5.77
2022-10-12T13:06:51.955Z,5.90
2022-10-12T13:09:44.918Z,6.00
2022-10-12T13:12:41.987Z,5.70
2022-10-12T13:15:28.455Z,5.00
2022-10-12T13:18:47.578Z,5.97
2022-10-12T13:21:22.694Z,5.97
2022-10-12T13:24:02.978Z,5.53
2022-10-12T13:26:32.382Z,5.67
2022-10-12T13:29:02.356Z,5.73
2022-10-12T13:31:38.714Z,4.87
2022-10-12T13:34:16.643Z,4.93
2022-10-12T13:36:53.878Z,4.50
2022-10-12T13:39:23.381Z,5.83
2022-10-12T13:41:55.334Z,5.53
2022-10-12T13:44:26.892Z,5.40
2022-10-12T13:46:59.207Z,5.37
2022-10-12T13:49:31.463Z,4.93
2022-10-12T13:52:03.210Z,5.00
2022-10-12T13:54:39.352Z,5.33
2022-10-12T13:57:19.968Z,5.40
2022-10-12T13:59:57.643Z,4.90
2022-10-12T14:02:29.855Z,4.90
2022-10-12T14:04:59.578Z,4.70
2022-10-12T14:07:33.023Z,4.90
2022-10-12T14:10:07.004Z,5.30
2022-10-12T14:12:37.290Z,4.30
2022-10-12T14:15:07.823Z,5.40
2022-10-12T14:17:45.317Z,4.80
2022-10-12T14:20:27.437Z,5.50
2022-10-12T14:22:58.295Z,4.53
2022-10-12T14:25:28.670Z,4.53
2022-10-12T14:27:59.203Z,4.60
2022-10-12T14:30:31.740Z,5.73
2022-10-12T14:33:13.766Z,5.07
2022-10-12T14:35:46.483Z,4.87
2022-10-12T14:38:40.677Z,5.33
2022-10-12T14:41:37.284Z,4.83
2022-10-12T14:44:13.285Z,4.70
2022-10-12T14:46:48.262Z,3.80
2022-10-12T14:49:21.327Z,4.27
2022-10-12T14:51:50.712Z,4.30
2022-10-12T14:54:18.842Z,4.30
2022-10-12T14:56:46.942Z,4.17
2022-10-12T14:59:14.999Z,4.13
2022-10-12T15:01:47.591Z,4.70
2022-10-12T15:04:20.482Z,4.47
2022-10-12T15:06:50.944Z,4.80
2022-10-12T15:09:19.281Z,4.33
2022-10-12T15:11:47.341Z,4.57
2022-10-12T15:14:15.397Z,4.20
2022-10-12T15:16:43.515Z,4.50
2022-10-12T15:19:11.522Z,4.43
2022-10-12T15:21:40.921Z,4.20
2022-10-12T15:24:16.259Z,4.40
2022-10-12T15:26:44.321Z,4.13
2022-10-12T15:29:12.563Z,4.33
2022-10-12T15:31:40.637Z,3.73
2022-10-12T15:34:12.751Z,4.10
2022-10-12T15:36:42.420Z,3.70
2022-10-12T15:39:10.597Z,3.13
2022-10-12T15:41:38.590Z,3.43
2022-10-12T15:44:07.403Z,3.00
2022-10-12T15:46:35.429Z,2.90
2022-10-12T15:49:03.470Z,3.30
2022-10-12T15:51:32.717Z,3.13
2022-10-12T15:54:02.055Z,3.47
2022-10-12T15:56:30.238Z,3.90
2022-10-12T15:58:58.336Z,2.87
2022-10-12T16:01:26.538Z,3.03
2022-10-12T16:03:54.599Z,3.60
2022-10-12T16:06:22.963Z,3.43
2022-10-12T16:08:51.003Z,4.27
2022-10-12T16:11:21.080Z,5.10
2022-10-12T16:13:55.437Z,3.60
2022-10-12T16:16:24.763Z,3.97
2022-10-12T16:18:53.958Z,3.10
2022-10-12T16:21:22.472Z,3.37
2022-10-12T16:23:50.585Z,3.47
2022-10-12T16:26:20.114Z,3.80
2022-10-12T16:28:48.332Z,3.10
2022-10-12T16:31:18.013Z,3.00
2022-10-12T16:33:46.459Z,3.50
2022-10-12T16:36:17.250Z,3.20
2022-10-12T16:38:45.534Z,3.60
2022-10-12T16:41:16.171Z,3.20
2022-10-12T16:43:46.184Z,3.13
2022-10-12T16:46:14.249Z,3.20
2022-10-12T16:48:42.327Z,3.30
2022-10-12T16:51:12.489Z,2.87
2022-10-12T16:53:42.279Z,4.47
2022-10-12T16:56:10.996Z,3.53
2022-10-12T16:58:39.054Z,3.97
2022-10-12T17:01:13.766Z,3.63
2022-10-12T17:03:41.910Z,3.97
2022-10-12T17:06:10.836Z,4.33
2022-10-12T17:08:39.872Z,3.70
2022-10-12T17:11:09.605Z,4.80
2022-10-12T17:13:39.355Z,3.93
2022-10-12T17:16:34.876Z,4.00
2022-10-12T17:19:04.500Z,4.43
2022-10-12T17:21:32.686Z,4.03
2022-10-12T17:24:02.215Z,4.23
2022-10-12T17:26:30.750Z,4.23
2022-10-12T17:28:58.768Z,4.23
2022-10-12T17:31:27.173Z,3.93
2022-10-12T17:33:55.182Z,4.30
2022-10-12T17:36:28.256Z,3.63
2022-10-12T17:38:59.454Z,3.77
2022-10-12T17:41:29.738Z,4.03
2022-10-12T17:43:58.671Z,3.43
2022-10-12T17:46:26.762Z,4.30
2022-10-12T17:48:55.115Z,3.80
2022-10-12T17:51:24.630Z,4.13
2022-10-12T17:53:53.523Z,4.20
2022-10-12T17:56:21.778Z,4.40
2022-10-12T17:58:55.285Z,3.90
2022-10-12T18:01:24.729Z,3.57
2022-10-12T18:03:55.239Z,3.73
2022-10-12T18:06:25.623Z,3.57
2022-10-12T18:08:54.985Z,3.67
2022-10-12T18:11:24.395Z,3.23
2022-10-12T18:13:55.417Z,6.97
2022-10-12T18:16:26.126Z,5.33
2022-10-12T18:18:55.014Z,4.53
2022-10-12T18:21:26.719Z,4.03
2022-10-12T18:23:55.665Z,3.93
2022-10-12T18:26:24.910Z,3.40
2022-10-12T18:28:55.536Z,3.60
2022-10-12T18:31:26.378Z,7.67
2022-10-12T18:33:56.450Z,9.10
2022-10-12T18:36:27.257Z,6.93
2022-10-12T18:38:55.993Z,5.73
2022-10-12T18:41:25.783Z,4.87
2022-10-12T18:43:57.892Z,6.67
2022-10-12T18:46:28.969Z,11.73
2022-10-12T18:48:57.657Z,19.53
2022-10-12T18:51:30.120Z,16.90
2022-10-12T18:53:59.753Z,14.77
2022-10-12T18:56:29.183Z,14.63
2022-10-12T18:58:59.623Z,10.73
2022-10-12T19:01:30.559Z,8.30
2022-10-12T19:04:01.102Z,6.83
2022-10-12T19:06:39.465Z,6.00
2022-10-12T19:09:10.055Z,5.87
2022-10-12T19:11:38.128Z,6.27
2022-10-12T19:14:08.591Z,5.70
2022-10-12T19:16:37.282Z,5.53
2022-10-12T19:19:09.445Z,5.30
2022-10-12T19:21:40.623Z,6.03
2022-10-12T19:24:12.498Z,5.97
2022-10-12T19:26:41.855Z,5.90
2022-10-12T19:29:09.913Z,5.10
2022-10-12T19:31:40.813Z,4.83
2022-10-12T19:34:11.665Z,4.70
2022-10-12T19:36:42.582Z,4.67
2022-10-12T19:39:15.202Z,4.80
2022-10-12T19:41:43.303Z,4.53
2022-10-12T19:44:12.498Z,4.87
2022-10-12T19:46:42.555Z,4.70
2022-10-12T19:49:13.981Z,5.37
2022-10-12T19:51:44.942Z,4.40
2022-10-12T19:54:15.706Z,3.90
2022-10-12T19:56:43.754Z,3.80
2022-10-12T19:59:11.818Z,4.60
2022-10-12T20:01:40.995Z,5.53
2022-10-12T20:04:11.895Z,4.93
2022-10-12T20:06:40.463Z,5.13
2022-10-12T20:09:10.695Z,4.93
2022-10-12T20:11:39.072Z,10.27
2022-10-12T20:14:07.865Z,27.77
2022-10-12T20:16:37.298Z,22.83
2022-10-12T20:19:06.964Z,12.37
2022-10-12T20:21:36.402Z,6.80
2022-10-12T20:24:04.986Z,6.20
2022-10-12T20:26:34.338Z,8.60
2022-10-12T20:29:02.708Z,7.07
2022-10-12T20:31:30.779Z,6.20
2022-10-12T20:33:58.839Z,5.23
2022-10-12T20:36:29.832Z,5.90
2022-10-12T20:38:59.591Z,5.50
2022-10-12T20:41:28.492Z,5.00
2022-10-12T20:43:59.770Z,5.03
2022-10-12T20:46:29.539Z,5.10
2022-10-12T20:49:00.025Z,5.80
2022-10-12T20:51:30.371Z,5.87
2022-10-12T20:54:00.680Z,5.73
2022-10-12T20:56:29.712Z,6.30
2022-10-12T20:58:59.479Z,6.83
2022-10-12T21:01:28.822Z,6.90
2022-10-12T21:03:57.350Z,7.23
2022-10-12T21:06:25.488Z,7.30
2022-10-12T21:08:55.769Z,8.73
2022-10-12T21:11:24.732Z,8.10
2022-10-12T21:13:52.818Z,6.40
2022-10-12T21:16:22.217Z,6.57
2022-10-12T21:18:54.258Z,6.03
2022-10-12T21:21:23.048Z,7.10
2022-10-12T21:23:56.311Z,6.33
2022-10-12T21:26:27.828Z,6.00
2022-10-12T21:28:56.196Z,7.17
2022-10-12T21:31:30.957Z,5.87
2022-10-12T21:34:01.287Z,6.70
2022-10-12T21:36:31.009Z,6.90
2022-10-12T21:38:59.151Z,6.53
2022-10-12T21:41:30.056Z,7.07
2022-10-12T21:43:59.130Z,6.40
2022-10-12T21:46:31.359Z,6.53
2022-10-12T21:49:01.521Z,5.73
2022-10-12T21:51:32.244Z,5.97
2022-10-12T21:54:00.309Z,7.17
2022-10-12T21:56:30.963Z,6.80
2022-10-12T21:59:01.309Z,6.20
2022-10-12T22:01:34.502Z,6.13
2022-10-12T22:04:06.486Z,6.43
2022-10-12T22:06:35.735Z,5.80
2022-10-12T22:09:08.979Z,6.00
2022-10-12T22:11:38.285Z,6.50
2022-10-12T22:14:12.856Z,7.03
2022-10-12T22:16:44.091Z,6.93
2022-10-12T22:19:18.526Z,6.00
2022-10-12T22:21:47.638Z,6.60
2022-10-12T22:24:16.111Z,6.50
2022-10-12T22:26:44.489Z,6.80
2022-10-12T22:29:12.567Z,6.33
2022-10-12T22:31:44.255Z,6.27
2022-10-12T22:34:12.967Z,6.13
2022-10-12T22:36:41.054Z,6.40
2022-10-12T22:39:09.482Z,6.30
2022-10-12T22:41:37.583Z,6.23
2022-10-12T22:44:05.838Z,6.67
2022-10-12T22:46:33.908Z,6.20
2022-10-12T22:49:04.175Z,6.53
2022-10-12T22:51:34.917Z,6.53
2022-10-12T22:54:04.069Z,6.33
2022-10-12T22:56:32.670Z,6.40
2022-10-12T22:59:03.403Z,5.93
2022-10-12T23:01:31.430Z,6.10
2022-10-12T23:03:59.596Z,6.00
2022-10-12T23:06:29.159Z,6.63
2022-10-12T23:08:57.278Z,6.47
2022-10-12T23:11:27.682Z,5.77
2022-10-12T23:13:57.379Z,6.03
2022-10-12T23:16:28.393Z,6.63
2022-10-12T23:18:59.569Z,6.87
2022-10-12T23:21:30.970Z,6.63
2022-10-12T23:24:00.321Z,7.40
2022-10-12T23:26:29.622Z,7.33
2022-10-12T23:28:58.243Z,6.90
2022-10-12T23:31:30.485Z,7.43
2022-10-12T23:34:00.099Z,7.83
2022-10-12T23:36:30.210Z,8.07
2022-10-12T23:39:01.182Z,7.40
2022-10-12T23:41:29.208Z,6.80
2022-10-12T23:43:57.262Z,7.47
2022-10-12T23:46:25.483Z,7.63
2022-10-12T23:48:55.068Z,8.13
2022-10-12T23:51:23.346Z,7.80
2022-10-12T23:53:52.846Z,8.30
2022-10-12T23:56:20.973Z,8.57
2022-10-12T23:58:49.036Z,8.23
